Time,TemperatureF,DewpointF,PressureIn,WindDirection,WindDirectionDegrees,WindSpeedMPH,WindSpeedGustMPH,Humidity,HourlyPrecipIn,Conditions,Clouds,dailyrainin,SolarRadiationWatts/m^2,SoftwareType,DateUTC
2013-07-30 00:02:00,62.6,50.7,29.80,ESE,113,4.0,5.0,65,0.00,,,0.00,95,Wunderground v.1.15,2013-07-30 06:02:00,
2013-07-30 00:08:00,61.7,49.0,29.80,ESE,106,5.0,12.0,63,0.00,,,0.00,93,Wunderground v.1.15,2013-07-30 06:08:00,
2013-07-30 00:14:00,61.1,49.2,29.80,ESE,106,5.0,12.0,65,0.00,,,0.00,90,Wunderground v.1.15,2013-07-30 06:14:00,
2013-07-30 00:22:00,60.4,49.0,29.80,East,93,5.0,12.0,66,0.00,,,0.00,88,Wunderground v.1.15,2013-07-30 06:22:00,
2013-07-30 00:28:00,59.8,48.0,29.81,East,85,5.0,12.0,65,0.00,,,0.00,84,Wunderground v.1.15,2013-07-30 06:28:00,
2013-07-30 00:34:00,59.4,47.6,29.82,East,89,5.0,12.0,65,0.00,,,0.00,83,Wunderground v.1.15,2013-07-30 06:34:00,
2013-07-30 00:42:00,59.2,48.6,29.81,East,94,4.0,12.0,68,0.00,,,0.00,81,Wunderground v.1.15,2013-07-30 06:42:00,
2013-07-30 00:50:00,59.2,49.0,29.82,East,94,1.0,1.0,69,0.00,,,0.00,79,Wunderground v.1.15,2013-07-30 06:50:00,
2013-07-30 00:56:00,59.6,48.6,29.83,East,89,2.0,6.0,67,0.00,,,0.00,79,Wunderground v.1.15,2013-07-30 06:56:00,
2013-07-30 01:02:00,59.4,49.2,29.82,East,96,5.0,12.0,69,0.00,,,0.00,81,Wunderground v.1.15,2013-07-30 07:02:00,
2013-07-30 01:08:00,59.1,46.5,29.84,East,99,6.0,12.0,63,0.00,,,0.00,81,Wunderground v.1.15,2013-07-30 07:08:00,
2013-07-30 01:14:00,59.2,47.4,29.83,East,82,6.0,12.0,65,0.00,,,0.00,81,Wunderground v.1.15,2013-07-30 07:14:00,
2013-07-30 01:20:00,59.0,46.4,29.83,East,90,5.0,12.0,63,0.00,,,0.00,81,Wunderground v.1.15,2013-07-30 07:20:00,
2013-07-30 01:26:00,59.1,46.5,29.85,East,87,5.0,12.0,63,0.00,,,0.00,81,Wunderground v.1.15,2013-07-30 07:26:00,
2013-07-30 01:32:00,59.2,46.2,29.83,ENE,72,4.0,12.0,62,0.00,,,0.00,81,Wunderground v.1.15,2013-07-30 07:32:00,
2013-07-30 01:38:00,59.2,44.9,29.84,ENE,66,3.0,12.0,59,0.00,,,0.00,81,Wunderground v.1.15,2013-07-30 07:38:00,
2013-07-30 01:54:00,59.2,49.4,29.85,SSE,168,2.0,12.0,70,0.00,,,0.00,79,Wunderground v.1.15,2013-07-30 07:54:00,
2013-07-30 02:00:00,58.3,48.2,29.84,SSE,156,4.0,7.0,69,0.00,,,0.00,77,Wunderground v.1.15,2013-07-30 08:00:00,
2013-07-30 02:06:00,58.0,49.0,29.84,East,89,5.0,7.0,72,0.00,,,0.00,76,Wunderground v.1.15,2013-07-30 08:06:00,
2013-07-30 02:12:00,57.1,47.0,29.85,East,89,4.0,7.0,69,0.00,,,0.00,74,Wunderground v.1.15,2013-07-30 08:12:00,
2013-07-30 02:18:00,56.9,46.8,29.84,ESE,102,5.0,7.0,69,0.00,,,0.00,74,Wunderground v.1.15,2013-07-30 08:18:00,
2013-07-30 02:24:00,56.8,44.7,29.86,ESE,106,6.0,7.0,64,0.00,,,0.00,72,Wunderground v.1.15,2013-07-30 08:24:00,
2013-07-30 02:32:00,57.1,44.6,29.86,ESE,106,5.0,7.0,63,0.00,,,0.00,74,Wunderground v.1.15,2013-07-30 08:32:00,
2013-07-30 02:38:00,57.2,43.9,29.84,ESE,106,4.0,7.0,61,0.00,,,0.00,74,Wunderground v.1.15,2013-07-30 08:38:00,
2013-07-30 02:44:00,57.2,41.6,29.87,ESE,106,2.0,7.0,56,0.00,,,0.00,72,Wunderground v.1.15,2013-07-30 08:44:00,
2013-07-30 02:50:00,57.3,46.8,29.86,ESE,102,3.0,7.0,68,0.00,,,0.00,72,Wunderground v.1.15,2013-07-30 08:50:00,
2013-07-30 02:56:00,56.9,47.6,29.87,East,100,5.0,8.0,71,0.00,,,0.00,72,Wunderground v.1.15,2013-07-30 08:56:00,
2013-07-30 03:02:00,56.4,44.4,29.86,East,89,6.0,7.0,64,0.00,,,0.00,72,Wunderground v.1.15,2013-07-30 09:02:00,
2013-07-30 03:08:00,56.5,44.9,29.85,East,100,6.0,7.0,65,0.00,,,0.00,72,Wunderground v.1.15,2013-07-30 09:08:00,
2013-07-30 03:14:00,56.6,42.4,29.87,ESE,103,6.0,7.0,59,0.00,,,0.00,72,Wunderground v.1.15,2013-07-30 09:14:00,
2013-07-30 03:24:00,55.0,47.2,29.87,ESE,112,7.0,8.0,75,0.00,,,0.00,69,Wunderground v.1.15,2013-07-30 09:24:00,
2013-07-30 03:30:00,53.3,46.3,29.87,ESE,110,8.0,9.0,77,0.00,,,0.00,65,Wunderground v.1.15,2013-07-30 09:30:00,
2013-07-30 03:36:00,52.7,46.4,29.87,East,94,7.0,9.0,79,0.00,,,0.00,62,Wunderground v.1.15,2013-07-30 09:36:00,
2013-07-30 03:42:00,52.9,47.2,29.88,East,94,4.0,7.0,81,0.00,,,0.00,60,Wunderground v.1.15,2013-07-30 09:42:00,
2013-07-30 03:48:00,53.0,46.7,29.88,East,94,2.0,7.0,79,0.00,,,0.00,60,Wunderground v.1.15,2013-07-30 09:48:00,
2013-07-30 03:54:00,53.1,46.8,29.88,West,280,2.0,7.0,79,0.00,,,0.00,60,Wunderground v.1.15,2013-07-30 09:54:00,
2013-07-30 04:00:00,53.5,45.8,29.87,ESE,110,4.0,7.0,75,0.00,,,0.00,60,Wunderground v.1.15,2013-07-30 10:00:00,
2013-07-30 04:06:00,53.9,45.4,29.89,ESE,102,5.0,7.0,73,0.00,,,0.00,62,Wunderground v.1.15,2013-07-30 10:06:00,
2013-07-30 04:12:00,54.1,47.4,29.89,ESE,103,6.0,7.0,78,0.00,,,0.00,62,Wunderground v.1.15,2013-07-30 10:12:00,
2013-07-30 04:18:00,53.4,45.7,29.89,East,98,6.0,7.0,75,0.00,,,0.00,62,Wunderground v.1.15,2013-07-30 10:18:00,
2013-07-30 04:24:00,53.4,43.1,29.90,ESE,114,5.0,7.0,68,0.00,,,0.00,62,Wunderground v.1.15,2013-07-30 10:24:00,
2013-07-30 04:30:00,53.7,44.5,29.90,ESE,112,5.0,7.0,71,0.00,,,0.00,63,Wunderground v.1.15,2013-07-30 10:30:00,
2013-07-30 04:36:00,53.7,46.0,29.90,ESE,109,6.0,8.0,75,0.00,,,0.00,63,Wunderground v.1.15,2013-07-30 10:36:00,
2013-07-30 04:42:00,53.7,46.0,29.90,East,84,7.0,7.0,75,0.00,,,0.00,63,Wunderground v.1.15,2013-07-30 10:42:00,
2013-07-30 04:48:00,53.9,45.4,29.90,East,84,4.0,7.0,73,0.00,,,0.00,63,Wunderground v.1.15,2013-07-30 10:48:00,
2013-07-30 04:54:00,54.1,44.5,29.90,East,84,2.0,7.0,70,0.00,,,0.00,63,Wunderground v.1.15,2013-07-30 10:54:00,
2013-07-30 05:00:00,54.4,47.7,29.91,ESE,116,4.0,7.0,78,0.00,,,0.00,65,Wunderground v.1.15,2013-07-30 11:00:00,
2013-07-30 05:06:00,54.3,47.9,29.92,ESE,114,5.0,7.0,79,0.00,,,0.00,65,Wunderground v.1.15,2013-07-30 11:06:00,
2013-07-30 05:12:00,53.4,46.0,29.92,ESE,111,6.0,7.0,76,0.00,,,0.00,63,Wunderground v.1.15,2013-07-30 11:12:00,
2013-07-30 05:18:00,52.9,46.2,29.92,East,100,5.0,7.0,78,0.00,,,0.00,62,Wunderground v.1.15,2013-07-30 11:18:00,
2013-07-30 05:24:00,52.9,45.9,29.92,ESE,102,5.0,7.0,77,0.00,,,0.00,62,Wunderground v.1.15,2013-07-30 11:24:00,
2013-07-30 05:30:00,52.8,45.8,29.92,East,97,8.0,9.0,77,0.00,,,0.00,62,Wunderground v.1.15,2013-07-30 11:30:00,
2013-07-30 05:36:00,53.1,47.1,29.92,ESE,103,8.0,9.0,80,0.00,,,0.00,62,Wunderground v.1.15,2013-07-30 11:36:00,
2013-07-30 05:42:00,53.5,46.8,29.93,East,101,6.0,9.0,78,0.00,,,0.00,62,Wunderground v.1.15,2013-07-30 11:42:00,
2013-07-30 05:48:00,53.8,46.8,29.93,East,95,6.0,9.0,77,0.00,,,0.00,62,Wunderground v.1.15,2013-07-30 11:48:00,
2013-07-30 05:54:00,54.1,46.3,29.93,East,91,6.0,7.0,75,0.00,,,0.00,62,Wunderground v.1.15,2013-07-30 11:54:00,
2013-07-30 06:00:00,54.4,46.3,29.93,ESE,104,5.0,5.0,74,0.00,,,0.00,60,Wunderground v.1.15,2013-07-30 12:00:00,
2013-07-30 06:06:00,54.5,47.4,29.94,ESE,104,5.0,7.0,77,0.00,,,0.00,58,Wunderground v.1.15,2013-07-30 12:06:00,
2013-07-30 06:12:00,54.5,46.7,29.92,SE,129,5.0,7.0,75,0.00,,,0.00,56,Wunderground v.1.15,2013-07-30 12:12:00,
2013-07-30 06:18:00,53.9,46.2,29.94,East,83,7.0,8.0,75,0.00,,,0.00,46,Wunderground v.1.15,2013-07-30 12:18:00,
2013-07-30 06:24:00,52.8,45.4,29.92,East,83,7.0,7.0,76,0.00,,,0.00,47,Wunderground v.1.15,2013-07-30 12:24:00,
2013-07-30 06:30:00,52.6,45.9,29.94,East,87,6.0,7.0,78,0.00,,,0.00,23,Wunderground v.1.15,2013-07-30 12:30:00,
2013-07-30 06:36:00,53.0,46.7,29.93,East,100,6.0,7.0,79,0.00,,,0.00,7,Wunderground v.1.15,2013-07-30 12:36:00,
2013-07-30 06:42:00,53.5,47.5,29.94,ESE,120,5.0,7.0,80,0.00,,,0.00,0,Wunderground v.1.15,2013-07-30 12:42:00,
2013-07-30 06:48:00,53.4,47.0,29.94,ESE,118,5.0,7.0,79,0.00,,,0.00,0,Wunderground v.1.15,2013-07-30 12:48:00,
2013-07-30 06:54:00,53.7,47.0,29.95,ESE,120,4.0,7.0,78,0.00,,,0.00,0,Wunderground v.1.15,2013-07-30 12:54:00,
2013-07-30 07:00:00,54.1,46.7,29.93,ESE,102,6.0,9.0,76,0.00,,,0.00,0,Wunderground v.1.15,2013-07-30 13:00:00,
2013-07-30 07:06:00,53.5,46.1,29.95,East,100,8.0,9.0,76,0.00,,,0.00,0,Wunderground v.1.15,2013-07-30 13:06:00,
2013-07-30 07:14:00,52.9,46.6,29.94,East,100,8.0,8.0,79,0.00,,,0.00,0,Wunderground v.1.15,2013-07-30 13:14:00,
2013-07-30 07:20:00,53.0,46.7,29.96,ESE,110,6.0,6.0,79,0.00,,,0.00,0,Wunderground v.1.15,2013-07-30 13:20:00,
2013-07-30 07:26:00,53.6,46.6,29.95,ESE,114,5.0,7.0,77,0.00,,,0.00,0,Wunderground v.1.15,2013-07-30 13:26:00,
2013-07-30 07:32:00,53.9,47.2,29.95,ESE,113,2.0,7.0,78,0.00,,,0.00,0,Wunderground v.1.15,2013-07-30 13:32:00,
2013-07-30 07:38:00,54.3,47.6,29.96,ESE,113,1.0,7.0,78,0.00,,,0.00,0,Wunderground v.1.15,2013-07-30 13:38:00,
2013-07-30 07:44:00,54.7,46.9,29.95,East,101,1.0,7.0,75,0.00,,,0.00,0,Wunderground v.1.15,2013-07-30 13:44:00,
2013-07-30 07:50:00,55.0,47.9,29.93,East,101,2.0,7.0,77,0.00,,,0.00,0,Wunderground v.1.15,2013-07-30 13:50:00,
2013-07-30 07:56:00,54.9,47.8,29.95,East,101,1.0,7.0,77,0.00,,,0.00,0,Wunderground v.1.15,2013-07-30 13:56:00,
2013-07-30 08:02:00,55.0,47.6,29.92,East,95,1.0,7.0,76,0.00,,,0.00,0,Wunderground v.1.15,2013-07-30 14:02:00,
2013-07-30 08:10:00,55.0,47.2,29.93,NE,37,2.0,7.0,75,0.00,,,0.00,0,Wunderground v.1.15,2013-07-30 14:10:00,
2013-07-30 08:16:00,55.3,48.9,29.91,WSW,251,5.0,9.0,79,0.00,,,0.00,0,Wunderground v.1.15,2013-07-30 14:16:00,
2013-07-30 08:22:00,55.4,47.2,29.94,SW,231,6.0,7.0,74,0.00,,,0.00,0,Wunderground v.1.15,2013-07-30 14:22:00,
2013-07-30 08:28:00,55.5,47.3,29.92,South,179,5.0,7.0,74,0.00,,,0.00,0,Wunderground v.1.15,2013-07-30 14:28:00,
2013-07-30 08:34:00,55.6,47.4,29.94,South,180,3.0,7.0,74,0.00,,,0.00,0,Wunderground v.1.15,2013-07-30 14:34:00,
2013-07-30 08:40:00,55.9,47.7,29.92,West,275,1.0,7.0,74,0.00,,,0.00,0,Wunderground v.1.15,2013-07-30 14:40:00,
2013-07-30 08:46:00,56.0,47.8,29.94,West,275,3.0,7.0,74,0.00,,,0.00,0,Wunderground v.1.15,2013-07-30 14:46:00,
2013-07-30 08:52:00,56.1,47.9,29.93,West,275,2.0,7.0,74,0.00,,,0.00,0,Wunderground v.1.15,2013-07-30 14:52:00,
2013-07-30 08:58:00,56.5,48.3,29.95,West,275,1.0,7.0,74,0.00,,,0.00,0,Wunderground v.1.15,2013-07-30 14:58:00,
2013-07-30 09:04:00,57.1,48.2,29.95,West,275,2.0,7.0,72,0.00,,,0.00,0,Wunderground v.1.15,2013-07-30 15:04:00,
2013-07-30 09:10:00,57.7,47.6,29.94,West,275,3.0,3.0,69,0.00,,,0.00,0,Wunderground v.1.15,2013-07-30 15:10:00,
2013-07-30 09:16:00,58.2,47.3,29.95,West,275,2.0,7.0,67,0.00,,,0.00,0,Wunderground v.1.15,2013-07-30 15:16:00,
2013-07-30 09:22:00,58.6,46.9,29.93,West,275,2.0,7.0,65,0.00,,,0.00,0,Wunderground v.1.15,2013-07-30 15:22:00,
2013-07-30 09:28:00,58.9,46.3,29.95,West,275,2.0,7.0,63,0.00,,,0.00,0,Wunderground v.1.15,2013-07-30 15:28:00,
2013-07-30 09:34:00,58.9,46.7,29.93,West,275,3.0,7.0,64,0.00,,,0.00,0,Wunderground v.1.15,2013-07-30 15:34:00,
2013-07-30 09:40:00,58.7,47.0,29.93,West,275,4.0,7.0,65,0.00,,,0.00,0,Wunderground v.1.15,2013-07-30 15:40:00,
2013-07-30 09:46:00,58.7,47.4,29.95,West,275,3.0,7.0,66,0.00,,,0.00,0,Wunderground v.1.15,2013-07-30 15:46:00,
2013-07-30 09:52:00,58.8,47.1,29.93,West,275,3.0,7.0,65,0.00,,,0.00,0,Wunderground v.1.15,2013-07-30 15:52:00,
2013-07-30 09:58:00,58.9,47.6,29.95,WSW,257,4.0,7.0,66,0.00,,,0.00,0,Wunderground v.1.15,2013-07-30 15:58:00,
2013-07-30 10:04:00,59.0,47.2,29.93,West,263,5.0,7.0,65,0.00,,,0.00,0,Wunderground v.1.15,2013-07-30 16:04:00,
2013-07-30 10:10:00,58.9,47.6,29.95,WSW,258,6.0,6.0,66,0.00,,,0.00,0,Wunderground v.1.15,2013-07-30 16:10:00,
2013-07-30 10:16:00,59.1,48.1,29.92,West,262,6.0,7.0,67,0.00,,,0.00,0,Wunderground v.1.15,2013-07-30 16:16:00,
2013-07-30 10:22:00,59.1,47.7,29.94,West,280,6.0,7.0,66,0.00,,,0.00,0,Wunderground v.1.15,2013-07-30 16:22:00,
2013-07-30 10:28:00,59.1,48.5,29.94,West,275,6.0,7.0,68,0.00,,,0.00,0,Wunderground v.1.15,2013-07-30 16:28:00,
2013-07-30 10:34:00,59.0,48.1,29.92,WSW,247,5.0,7.0,67,0.00,,,0.00,0,Wunderground v.1.15,2013-07-30 16:34:00,
2013-07-30 10:40:00,58.8,48.3,29.93,West,261,6.0,7.0,68,0.00,,,0.00,0,Wunderground v.1.15,2013-07-30 16:40:00,
2013-07-30 10:46:00,59.0,47.7,29.92,WSW,246,6.0,7.0,66,0.00,,,0.00,0,Wunderground v.1.15,2013-07-30 16:46:00,
2013-07-30 10:52:00,59.4,47.6,29.93,WSW,246,4.0,7.0,65,0.00,,,0.00,0,Wunderground v.1.15,2013-07-30 16:52:00,
2013-07-30 11:00:00,60.0,48.6,29.92,WSW,246,2.0,2.0,66,0.00,,,0.00,0,Wunderground v.1.15,2013-07-30 17:00:00,
2013-07-30 11:06:00,60.2,48.4,29.93,WSW,247,3.0,7.0,65,0.00,,,0.00,0,Wunderground v.1.15,2013-07-30 17:06:00,
2013-07-30 11:10:00,60.4,47.7,29.96,WSW,247,3.0,7.0,63,0.00,,,0.00,0,Wunderground v.1.15,2013-07-30 17:10:00,
2013-07-30 11:16:00,60.5,48.7,29.96,South,177,3.0,8.0,65,0.00,,,0.00,0,Wunderground v.1.15,2013-07-30 17:16:00,
2013-07-30 11:22:00,60.7,50.1,29.94,North,7,7.0,14.0,68,0.00,,,0.00,0,Wunderground v.1.15,2013-07-30 17:22:00,
2013-07-30 11:28:00,61.6,49.3,29.94,NNE,13,8.0,14.0,64,0.00,,,0.00,0,Wunderground v.1.15,2013-07-30 17:28:00,
2013-07-30 11:34:00,62.8,49.6,29.92,ENE,59,8.0,10.0,62,0.00,,,0.00,0,Wunderground v.1.15,2013-07-30 17:34:00,
2013-07-30 11:40:00,63.8,49.6,29.93,WSW,248,8.0,10.0,60,0.00,,,0.00,0,Wunderground v.1.15,2013-07-30 17:40:00,
2013-07-30 11:46:00,64.3,45.8,29.92,North,3,7.0,11.0,51,0.00,,,0.00,0,Wunderground v.1.15,2013-07-30 17:46:00,
2013-07-30 11:52:00,65.6,45.9,29.92,North,3,4.0,7.0,49,0.00,,,0.00,0,Wunderground v.1.15,2013-07-30 17:52:00,
2013-07-30 11:58:00,65.8,49.2,29.92,SW,224,6.0,11.0,55,0.00,,,0.00,0,Wunderground v.1.15,2013-07-30 17:58:00,
2013-07-30 12:04:00,65.3,48.7,29.92,SW,219,8.0,8.0,55,0.00,,,0.00,0,Wunderground v.1.15,2013-07-30 18:04:00,
2013-07-30 12:10:00,65.0,48.4,29.92,WSW,243,7.0,7.0,55,0.00,,,0.00,0,Wunderground v.1.15,2013-07-30 18:10:00,
2013-07-30 12:16:00,64.9,49.3,29.92,WSW,257,5.0,7.0,57,0.00,,,0.00,0,Wunderground v.1.15,2013-07-30 18:16:00,
2013-07-30 12:22:00,64.9,48.3,29.92,West,267,4.0,7.0,55,0.00,,,0.00,0,Wunderground v.1.15,2013-07-30 18:22:00,
2013-07-30 12:28:00,65.3,48.2,29.92,West,267,3.0,7.0,54,0.00,,,0.00,0,Wunderground v.1.15,2013-07-30 18:28:00,
2013-07-30 12:34:00,65.8,49.7,29.93,West,266,3.0,7.0,56,0.00,,,0.00,0,Wunderground v.1.15,2013-07-30 18:34:00,
2013-07-30 12:40:00,66.1,49.5,29.92,West,264,5.0,7.0,55,0.00,,,0.00,0,Wunderground v.1.15,2013-07-30 18:40:00,
2013-07-30 12:46:00,66.8,50.6,29.92,West,275,6.0,7.0,56,0.00,,,0.00,0,Wunderground v.1.15,2013-07-30 18:46:00,
2013-07-30 12:52:00,66.8,51.5,29.92,WSW,252,8.0,11.0,58,0.00,,,0.00,0,Wunderground v.1.15,2013-07-30 18:52:00,
2013-07-30 12:58:00,66.1,51.4,29.92,West,262,11.0,14.0,59,0.00,,,0.00,0,Wunderground v.1.15,2013-07-30 18:58:00,
2013-07-30 13:04:00,65.2,51.0,29.92,West,265,14.0,14.0,60,0.00,,,0.00,0,Wunderground v.1.15,2013-07-30 19:04:00,
2013-07-30 13:10:00,65.4,52.0,29.91,WSW,241,12.0,14.0,62,0.00,,,0.00,0,Wunderground v.1.15,2013-07-30 19:10:00,
2013-07-30 13:16:00,66.0,50.8,29.91,WSW,245,13.0,15.0,58,0.00,,,0.00,0,Wunderground v.1.15,2013-07-30 19:16:00,
2013-07-30 13:22:00,66.3,50.6,29.91,WSW,239,14.0,19.0,57,0.00,,,0.00,0,Wunderground v.1.15,2013-07-30 19:22:00,
2013-07-30 13:28:00,66.2,51.4,29.91,WSW,256,15.0,19.0,59,0.00,,,0.00,0,Wunderground v.1.15,2013-07-30 19:28:00,
2013-07-30 13:34:00,66.3,51.1,29.90,West,263,15.0,18.0,58,0.00,,,0.00,0,Wunderground v.1.15,2013-07-30 19:34:00,
2013-07-30 13:42:00,67.1,49.9,29.90,West,266,17.0,21.0,54,0.00,,,0.00,0,Wunderground v.1.15,2013-07-30 19:42:00,
2013-07-30 13:48:00,68.2,51.9,29.90,West,262,18.0,21.0,56,0.00,,,0.00,0,Wunderground v.1.15,2013-07-30 19:48:00,
2013-07-30 13:54:00,68.8,49.4,29.90,West,259,18.0,21.0,50,0.00,,,0.00,0,Wunderground v.1.15,2013-07-30 19:54:00,
2013-07-30 14:00:00,69.0,49.0,29.90,West,262,18.0,19.0,49,0.00,,,0.00,0,Wunderground v.1.15,2013-07-30 20:00:00,
2013-07-30 14:08:00,69.1,50.2,29.90,West,264,18.0,19.0,51,0.00,,,0.00,0,Wunderground v.1.15,2013-07-30 20:08:00,
2013-07-30 14:14:00,69.0,49.0,29.91,WSW,257,15.0,17.0,49,0.00,,,0.00,0,Wunderground v.1.15,2013-07-30 20:14:00,
2013-07-30 14:20:00,69.0,48.5,29.92,West,263,13.0,13.0,48,0.00,,,0.00,0,Wunderground v.1.15,2013-07-30 20:20:00,
2013-07-30 14:26:00,69.1,50.7,29.93,East,84,10.0,13.0,52,0.00,,,0.00,0,Wunderground v.1.15,2013-07-30 20:26:00,
2013-07-30 14:36:00,69.4,49.4,29.92,West,267,2.0,7.0,49,0.00,,,0.00,0,Wunderground v.1.15,2013-07-30 20:36:00,
2013-07-30 14:42:00,69.4,46.5,29.92,WSW,241,4.0,7.0,44,0.00,,,0.00,0,Wunderground v.1.15,2013-07-30 20:42:00,
2013-07-30 14:48:00,69.6,47.3,29.92,SW,229,5.0,7.0,45,0.00,,,0.00,0,Wunderground v.1.15,2013-07-30 20:48:00,
2013-07-30 14:54:00,69.8,46.9,29.93,WSW,252,4.0,7.0,44,0.00,,,0.00,0,Wunderground v.1.15,2013-07-30 20:54:00,
2013-07-30 15:00:00,70.0,45.2,29.94,SW,217,5.0,13.0,41,0.00,,,0.00,0,Wunderground v.1.15,2013-07-30 21:00:00,
2013-07-30 15:06:00,70.3,49.7,29.97,SSE,165,10.0,16.0,48,0.00,,,0.00,0,Wunderground v.1.15,2013-07-30 21:06:00,
2013-07-30 15:12:00,69.6,44.8,29.92,SSE,163,14.0,16.0,41,0.00,,,0.00,0,Wunderground v.1.15,2013-07-30 21:12:00,
2013-07-30 15:18:00,69.0,44.9,29.91,WNW,299,10.0,16.0,42,0.00,,,0.00,0,Wunderground v.1.15,2013-07-30 21:18:00,
2013-07-30 15:26:00,68.0,48.1,29.93,SW,224,15.0,19.0,49,0.00,,,0.00,0,Wunderground v.1.15,2013-07-30 21:26:00,
2013-07-30 15:32:00,67.2,49.5,29.93,WSW,242,16.0,17.0,53,0.00,,,0.00,0,Wunderground v.1.15,2013-07-30 21:32:00,
2013-07-30 15:38:00,67.7,47.8,29.92,WSW,251,12.0,17.0,49,0.00,,,0.00,0,Wunderground v.1.15,2013-07-30 21:38:00,
2013-07-30 15:44:00,68.2,49.9,29.92,West,280,11.0,13.0,52,0.00,,,0.00,0,Wunderground v.1.15,2013-07-30 21:44:00,
2013-07-30 15:54:00,69.1,47.4,29.92,WSW,253,8.0,10.0,46,0.00,,,0.00,0,Wunderground v.1.15,2013-07-30 21:54:00,
2013-07-30 16:00:00,69.3,47.0,29.92,SW,235,10.0,10.0,45,0.00,,,0.00,0,Wunderground v.1.15,2013-07-30 22:00:00,
2013-07-30 16:08:00,69.6,46.7,29.91,WSW,240,12.0,17.0,44,0.00,,,0.00,0,Wunderground v.1.15,2013-07-30 22:08:00,
2013-07-30 16:14:00,69.7,46.2,29.91,WSW,249,14.0,14.0,43,0.00,,,0.00,0,Wunderground v.1.15,2013-07-30 22:14:00,
2013-07-30 16:24:00,70.2,49.6,29.93,WSW,254,10.0,10.0,48,0.00,,,0.00,0,Wunderground v.1.15,2013-07-30 22:24:00,
2013-07-30 16:30:00,69.8,48.7,29.93,WSW,258,10.0,10.0,47,0.00,,,0.00,0,Wunderground v.1.15,2013-07-30 22:30:00,
2013-07-30 16:36:00,69.5,46.0,29.94,West,260,10.0,10.0,43,0.00,,,0.00,0,Wunderground v.1.15,2013-07-30 22:36:00,
2013-07-30 16:42:00,69.5,47.2,29.94,SW,223,6.0,9.0,45,0.00,,,0.00,0,Wunderground v.1.15,2013-07-30 22:42:00,
2013-07-30 16:50:00,69.5,44.8,29.92,NW,315,3.0,9.0,41,0.00,,,0.00,0,Wunderground v.1.15,2013-07-30 22:50:00,
2013-07-30 16:56:00,69.2,49.2,29.91,West,265,7.0,10.0,49,0.00,,,0.00,0,Wunderground v.1.15,2013-07-30 22:56:00,
2013-07-30 17:02:00,69.1,46.3,29.93,SW,220,10.0,10.0,44,0.00,,,0.00,0,Wunderground v.1.15,2013-07-30 23:02:00,
2013-07-30 17:08:00,69.2,48.1,29.93,SW,220,9.0,10.0,47,0.00,,,0.00,0,Wunderground v.1.15,2013-07-30 23:08:00,
2013-07-30 17:14:00,69.2,46.9,29.94,SSW,206,8.0,9.0,45,0.00,,,0.00,0,Wunderground v.1.15,2013-07-30 23:14:00,
2013-07-30 17:20:00,69.4,46.5,29.93,SW,218,6.0,9.0,44,0.00,,,0.00,0,Wunderground v.1.15,2013-07-30 23:20:00,
2013-07-30 17:34:00,69.7,50.8,29.92,SSW,199,6.0,9.0,51,0.00,,,0.00,0,Wunderground v.1.15,2013-07-30 23:34:00,
2013-07-30 17:40:00,70.0,48.8,29.92,SSW,212,7.0,9.0,47,0.00,,,0.00,0,Wunderground v.1.15,2013-07-30 23:40:00,
2013-07-30 17:52:00,70.6,47.0,29.92,South,187,6.0,9.0,43,0.00,,,0.00,0,Wunderground v.1.15,2013-07-30 23:52:00,
2013-07-30 17:58:00,70.6,48.2,29.92,SSW,197,6.0,9.0,45,0.00,,,0.00,0,Wunderground v.1.15,2013-07-30 23:58:00,
2013-07-30 18:04:00,70.7,45.8,29.92,SSW,201,6.0,9.0,41,0.00,,,0.00,0,Wunderground v.1.15,2013-07-31 00:04:00,
2013-07-30 18:10:00,70.8,47.8,29.92,SSW,200,5.0,9.0,44,0.00,,,0.00,0,Wunderground v.1.15,2013-07-31 00:10:00,
2013-07-30 18:16:00,70.8,47.8,29.92,South,180,5.0,9.0,44,0.00,,,0.00,0,Wunderground v.1.15,2013-07-31 00:16:00,
2013-07-30 18:22:00,70.9,46.7,29.93,South,179,6.0,9.0,42,0.00,,,0.00,0,Wunderground v.1.15,2013-07-31 00:22:00,
2013-07-30 18:28:00,71.4,46.5,29.93,South,179,5.0,9.0,41,0.00,,,0.00,0,Wunderground v.1.15,2013-07-31 00:28:00,
2013-07-30 18:34:00,71.8,44.8,29.92,South,179,4.0,9.0,38,0.00,,,0.00,0,Wunderground v.1.15,2013-07-31 00:34:00,
2013-07-30 18:40:00,72.1,45.8,29.93,South,179,3.0,3.0,39,0.00,,,0.00,0,Wunderground v.1.15,2013-07-31 00:40:00,
2013-07-30 18:46:00,72.6,46.9,29.92,South,179,2.0,9.0,40,0.00,,,0.00,0,Wunderground v.1.15,2013-07-31 00:46:00,
2013-07-30 18:54:00,72.8,47.1,29.93,South,175,3.0,9.0,40,0.00,,,0.00,0,Wunderground v.1.15,2013-07-31 00:54:00,
2013-07-30 19:00:00,72.8,46.4,29.92,South,175,3.0,3.0,39,0.00,,,0.00,0,Wunderground v.1.15,2013-07-31 01:00:00,
2013-07-30 19:06:00,72.8,45.7,29.92,South,175,2.0,9.0,38,0.00,,,0.00,0,Wunderground v.1.15,2013-07-31 01:06:00,
2013-07-30 19:12:00,72.7,44.9,29.92,South,175,1.0,9.0,37,0.00,,,0.00,0,Wunderground v.1.15,2013-07-31 01:12:00,
2013-07-30 19:18:00,72.9,45.8,29.92,South,175,1.0,9.0,38,0.00,,,0.00,0,Wunderground v.1.15,2013-07-31 01:18:00,
2013-07-30 19:24:00,73.1,46.0,29.92,South,175,1.0,9.0,38,0.00,,,0.00,0,Wunderground v.1.15,2013-07-31 01:24:00,
2013-07-30 19:32:00,73.2,50.6,29.93,South,175,2.0,9.0,45,0.00,,,0.00,0,Wunderground v.1.15,2013-07-31 01:32:00,
2013-07-30 19:38:00,73.2,47.4,29.92,South,175,3.0,9.0,40,0.00,,,0.00,0,Wunderground v.1.15,2013-07-31 01:38:00,
2013-07-30 19:44:00,73.0,45.2,29.93,South,186,4.0,9.0,37,0.00,,,0.00,0,Wunderground v.1.15,2013-07-31 01:44:00,
2013-07-30 19:50:00,72.7,45.6,29.93,South,186,4.0,9.0,38,0.00,,,0.00,0,Wunderground v.1.15,2013-07-31 01:50:00,
2013-07-30 19:56:00,72.5,46.8,29.93,South,186,4.0,9.0,40,0.00,,,0.00,0,Wunderground v.1.15,2013-07-31 01:56:00,
2013-07-30 20:02:00,72.4,46.0,29.93,South,186,4.0,6.0,39,0.00,,,0.00,0,Wunderground v.1.15,2013-07-31 02:02:00,
2013-07-30 20:08:00,72.2,47.8,29.94,South,186,4.0,6.0,42,0.00,,,0.00,0,Wunderground v.1.15,2013-07-31 02:08:00,
2013-07-30 20:14:00,72.0,48.3,29.94,South,186,3.0,6.0,43,0.00,,,0.00,0,Wunderground v.1.15,2013-07-31 02:14:00,
2013-07-30 20:20:00,71.9,48.8,29.94,South,186,2.0,2.0,44,0.00,,,0.00,0,Wunderground v.1.15,2013-07-31 02:20:00,
2013-07-30 20:26:00,71.9,48.8,29.94,South,186,2.0,6.0,44,0.00,,,0.00,0,Wunderground v.1.15,2013-07-31 02:26:00,
2013-07-30 20:32:00,71.9,50.0,29.94,South,186,1.0,6.0,46,0.00,,,0.00,0,Wunderground v.1.15,2013-07-31 02:32:00,
2013-07-30 20:40:00,71.9,50.6,29.94,South,186,0.0,6.0,47,0.00,,,0.00,16,Wunderground v.1.15,2013-07-31 02:40:00,
2013-07-30 20:50:00,71.6,46.6,29.95,SSE,159,1.0,6.0,41,0.00,,,0.00,53,Wunderground v.1.15,2013-07-31 02:50:00,
2013-07-30 20:56:00,71.2,47.6,29.95,SE,137,2.0,6.0,43,0.00,,,0.00,83,Wunderground v.1.15,2013-07-31 02:56:00,
2013-07-30 21:02:00,70.7,47.7,29.95,ESE,120,2.0,6.0,44,0.00,,,0.00,98,Wunderground v.1.15,2013-07-31 03:02:00,
2013-07-30 21:08:00,70.5,50.4,29.96,ESE,120,2.0,6.0,49,0.00,,,0.00,113,Wunderground v.1.15,2013-07-31 03:08:00,
2013-07-30 21:14:00,69.9,47.6,29.96,East,89,2.0,6.0,45,0.00,,,0.00,118,Wunderground v.1.15,2013-07-31 03:14:00,
2013-07-30 21:20:00,68.9,49.5,29.96,East,88,5.0,5.0,50,0.00,,,0.00,121,Wunderground v.1.15,2013-07-31 03:20:00,
2013-07-30 21:26:00,68.1,46.5,29.96,East,84,6.0,9.0,46,0.00,,,0.00,121,Wunderground v.1.15,2013-07-31 03:26:00,
2013-07-30 21:34:00,67.3,46.9,29.97,ENE,64,7.0,9.0,48,0.00,,,0.00,120,Wunderground v.1.15,2013-07-31 03:34:00,
2013-07-30 21:40:00,66.9,48.2,29.97,ENE,69,7.0,8.0,51,0.00,,,0.00,118,Wunderground v.1.15,2013-07-31 03:40:00,
2013-07-30 21:46:00,66.4,46.7,29.97,ENE,60,9.0,9.0,49,0.00,,,0.00,114,Wunderground v.1.15,2013-07-31 03:46:00,
2013-07-30 21:52:00,65.9,46.7,29.98,ENE,65,9.0,9.0,50,0.00,,,0.00,113,Wunderground v.1.15,2013-07-31 03:52:00,
2013-07-30 21:58:00,65.6,45.9,29.98,ENE,74,9.0,9.0,49,0.00,,,0.00,111,Wunderground v.1.15,2013-07-31 03:58:00,
2013-07-30 22:02:00,65.4,47.3,29.98,East,89,8.0,8.0,52,0.00,,,0.00,111,Wunderground v.1.15,2013-07-31 04:02:00,
2013-07-30 22:04:00,65.3,47.7,29.98,East,89,7.0,8.0,53,0.00,,,0.00,109,Wunderground v.1.15,2013-07-31 04:04:00,
2013-07-30 22:06:00,65.2,47.6,29.99,East,87,7.0,8.0,53,0.00,,,0.00,109,Wunderground v.1.15,2013-07-31 04:06:00,
2013-07-30 22:12:00,65.3,48.2,29.99,East,79,7.0,7.0,54,0.00,,,0.00,109,Wunderground v.1.15,2013-07-31 04:12:00,
2013-07-30 22:18:00,65.4,49.8,29.99,East,90,7.0,8.0,57,0.00,,,0.00,109,Wunderground v.1.15,2013-07-31 04:18:00,
2013-07-30 22:24:00,64.2,46.7,29.99,East,79,7.0,10.0,53,0.00,,,0.00,105,Wunderground v.1.15,2013-07-31 04:24:00,
2013-07-30 22:30:00,63.6,47.1,29.99,East,79,9.0,9.0,55,0.00,,,0.00,104,Wunderground v.1.15,2013-07-31 04:30:00,
2013-07-30 22:36:00,63.6,44.1,29.99,ENE,73,9.0,11.0,49,0.00,,,0.00,102,Wunderground v.1.15,2013-07-31 04:36:00,
2013-07-30 22:42:00,63.9,46.4,29.99,East,87,8.0,9.0,53,0.00,,,0.00,102,Wunderground v.1.15,2013-07-31 04:42:00,
2013-07-30 22:48:00,63.8,45.8,30.00,East,95,8.0,10.0,52,0.00,,,0.00,102,Wunderground v.1.15,2013-07-31 04:48:00,
2013-07-30 22:54:00,63.9,45.4,30.00,East,80,9.0,9.0,51,0.00,,,0.00,102,Wunderground v.1.15,2013-07-31 04:54:00,
2013-07-30 23:02:00,63.7,45.2,30.00,ENE,68,8.0,8.0,51,0.00,,,0.00,102,Wunderground v.1.15,2013-07-31 05:02:00,
2013-07-30 23:08:00,63.4,44.9,30.00,East,89,8.0,8.0,51,0.00,,,0.00,100,Wunderground v.1.15,2013-07-31 05:08:00,
2013-07-30 23:14:00,62.9,46.0,30.01,ENE,71,7.0,8.0,54,0.00,,,0.00,98,Wunderground v.1.15,2013-07-31 05:14:00,
2013-07-30 23:20:00,62.7,45.8,30.01,ESE,108,5.0,5.0,54,0.00,,,0.00,97,Wunderground v.1.15,2013-07-31 05:20:00,
2013-07-30 23:26:00,62.7,47.2,30.01,East,95,5.0,7.0,57,0.00,,,0.00,97,Wunderground v.1.15,2013-07-31 05:26:00,
2013-07-30 23:32:00,62.7,45.8,30.02,ENE,61,5.0,6.0,54,0.00,,,0.00,97,Wunderground v.1.15,2013-07-31 05:32:00,
2013-07-30 23:38:00,62.7,44.3,30.01,ENE,57,6.0,7.0,51,0.00,,,0.00,95,Wunderground v.1.15,2013-07-31 05:38:00,
2013-07-30 23:44:00,62.5,44.6,30.01,East,91,6.0,7.0,52,0.00,,,0.00,95,Wunderground v.1.15,2013-07-31 05:44:00,
2013-07-30 23:50:00,61.9,45.1,30.02,East,89,6.0,6.0,54,0.00,,,0.00,95,Wunderground v.1.15,2013-07-31 05:50:00,
2013-07-30 23:58:00,61.6,44.8,30.00,East,87,8.0,9.0,54,0.00,,,0.00,93,Wunderground v.1.15,2013-07-31 05:58:00,